sensor_id;sensor_type;location;lat;lon;timestamp;pressure;altitude;pressure_sealevel;temperature;humidity
17362;BME280;8798;51.938;4.348;2023-02-13T00:00:50;103806.56;;;9.96;68.24
17362;BME280;8798;51.938;4.348;2023-02-13T00:03:19;103808.47;;;9.94;68.29
17362;BME280;8798;51.938;4.348;2023-02-13T00:05:47;103799.53;;;9.94;68.08
17362;BME280;8798;51.938;4.348;2023-02-13T00:08:15;103810.28;;;9.94;68.07
17362;BME280;8798;51.938;4.348;2023-02-13T00:10:43;103800.53;;;9.91;68.09
17362;BME280;8798;51.938;4.348;2023-02-13T00:13:11;103795.19;;;9.91;68.07
17362;BME280;8798;51.938;4.348;2023-02-13T00:15:39;103787.22;;;9.89;68.09
17362;BME280;8798;51.938;4.348;2023-02-13T00:18:06;103784.59;;;9.88;68.63
17362;BME280;8798;51.938;4.348;2023-02-13T00:20:35;103783.63;;;9.89;68.43
17362;BME280;8798;51.938;4.348;2023-02-13T00:23:03;103783.72;;;9.87;68.43
17362;BME280;8798;51.938;4.348;2023-02-13T00:25:31;103783.63;;;9.89;68.39
17362;BME280;8798;51.938;4.348;2023-02-13T00:27:59;103783.63;;;9.89;68.35
17362;BME280;8798;51.938;4.348;2023-02-13T00:30:27;103785.47;;;9.88;68.23
17362;BME280;8798;51.938;4.348;2023-02-13T00:32:54;103784.59;;;9.88;68.31
17362;BME280;8798;51.938;4.348;2023-02-13T00:35:22;103780.19;;;9.87;68.21
17362;BME280;8798;51.938;4.348;2023-02-13T00:37:51;103771.22;;;9.86;68.18
17362;BME280;8798;51.938;4.348;2023-02-13T00:40:19;103782.78;;;9.88;68.24
17362;BME280;8798;51.938;4.348;2023-02-13T00:42:47;103787.28;;;9.88;68.51
17362;BME280;8798;51.938;4.348;2023-02-13T00:45:15;103794.38;;;9.89;68.45
17362;BME280;8798;51.938;4.348;2023-02-13T00:47:43;103794.38;;;9.89;68.39
17362;BME280;8798;51.938;4.348;2023-02-13T00:50:11;103793.44;;;9.90;68.30
17362;BME280;8798;51.938;4.348;2023-02-13T00:52:39;103790.75;;;9.90;68.24
17362;BME280;8798;51.938;4.348;2023-02-13T00:55:08;103792.59;;;9.89;68.50
17362;BME280;8798;51.938;4.348;2023-02-13T00:57:36;103781.91;;;9.88;68.49
17362;BME280;8798;51.938;4.348;2023-02-13T01:00:05;103785.47;;;9.88;68.39
17362;BME280;8798;51.938;4.348;2023-02-13T01:02:33;103787.34;;;9.86;68.58
17362;BME280;8798;51.938;4.348;2023-02-13T01:05:01;103778.50;;;9.84;68.46
17362;BME280;8798;51.938;4.348;2023-02-13T01:07:29;103769.66;;;9.82;68.39
17362;BME280;8798;51.938;4.348;2023-02-13T01:09:57;103761.59;;;9.82;68.48
17362;BME280;8798;51.938;4.348;2023-02-13T01:12:26;103763.50;;;9.80;68.63
17362;BME280;8798;51.938;4.348;2023-02-13T01:14:54;103763.44;;;9.82;68.44
17362;BME280;8798;51.938;4.348;2023-02-13T01:17:22;103770.59;;;9.81;68.33
17362;BME280;8798;51.938;4.348;2023-02-13T01:19:50;103767.03;;;9.81;68.54
17362;BME280;8798;51.938;4.348;2023-02-13T01:22:18;103755.44;;;9.80;68.50
17362;BME280;8798;51.938;4.348;2023-02-13T01:24:46;103759.94;;;9.80;68.70
17362;BME280;8798;51.938;4.348;2023-02-13T01:27:13;103751.94;;;9.78;68.59
17362;BME280;8798;51.938;4.348;2023-02-13T01:29:44;103756.44;;;9.78;68.55
17362;BME280;8798;51.938;4.348;2023-02-13T01:32:12;103755.50;;;9.79;68.58
17362;BME280;8798;51.938;4.348;2023-02-13T01:34:40;103759.13;;;9.78;68.58
17362;BME280;8798;51.938;4.348;2023-02-13T01:37:08;103756.38;;;9.79;68.63
17362;BME280;8798;51.938;4.348;2023-02-13T01:39:36;103766.22;;;9.79;68.41
17362;BME280;8798;51.938;4.348;2023-02-13T01:42:04;103757.31;;;9.78;68.41
17362;BME280;8798;51.938;4.348;2023-02-13T01:44:52;103746.69;;;9.77;68.65
17362;BME280;8798;51.938;4.348;2023-02-13T01:47:24;103738.75;;;9.74;68.69
17362;BME280;8798;51.938;4.348;2023-02-13T01:49:59;103743.25;;;9.73;68.62
17362;BME280;8798;51.938;4.348;2023-02-13T01:52:29;103740.50;;;9.75;68.56
17362;BME280;8798;51.938;4.348;2023-02-13T01:54:57;103734.34;;;9.73;68.48
17362;BME280;8798;51.938;4.348;2023-02-13T01:57:27;103732.56;;;9.72;68.74
17362;BME280;8798;51.938;4.348;2023-02-13T01:59:59;103738.84;;;9.72;68.79
17362;BME280;8798;51.938;4.348;2023-02-13T02:02:32;103737.94;;;9.72;68.62
17362;BME280;8798;51.938;4.348;2023-02-13T02:05:03;103741.59;;;9.71;68.68
17362;BME280;8798;51.938;4.348;2023-02-13T02:07:33;103737.09;;;9.71;68.80
17362;BME280;8798;51.938;4.348;2023-02-13T02:10:04;103730.91;;;9.69;68.70
17362;BME280;8798;51.938;4.348;2023-02-13T02:12:39;103728.22;;;9.69;68.93
17362;BME280;8798;51.938;4.348;2023-02-13T02:15:11;103739.84;;;9.69;68.82
17362;BME280;8798;51.938;4.348;2023-02-13T02:17:38;103734.50;;;9.69;68.98
17362;BME280;8798;51.938;4.348;2023-02-13T02:20:16;103739.84;;;9.69;69.05
17362;BME280;8798;51.938;4.348;2023-02-13T02:23:10;103743.41;;;9.70;68.81
17362;BME280;8798;51.938;4.348;2023-02-13T02:26:01;103731.88;;;9.68;68.86
17362;BME280;8798;51.938;4.348;2023-02-13T02:29:08;103732.72;;;9.68;69.22
17362;BME280;8798;51.938;4.348;2023-02-13T02:32:03;103738.97;;;9.69;68.90
17362;BME280;8798;51.938;4.348;2023-02-13T02:34:42;103746.09;;;9.70;68.99
17362;BME280;8798;51.938;4.348;2023-02-13T02:37:20;103751.38;;;9.72;68.92
17362;BME280;8798;51.938;4.348;2023-02-13T02:40:03;103759.34;;;9.73;68.86
17362;BME280;8798;51.938;4.348;2023-02-13T02:42:38;103759.34;;;9.73;68.99
17362;BME280;8798;51.938;4.348;2023-02-13T02:45:17;103760.31;;;9.72;68.72
17362;BME280;8798;51.938;4.348;2023-02-13T02:47:55;103760.31;;;9.72;69.10
17362;BME280;8798;51.938;4.348;2023-02-13T02:50:45;103748.69;;;9.72;68.88
17362;BME280;8798;51.938;4.348;2023-02-13T02:53:25;103751.47;;;9.70;68.98
17362;BME280;8798;51.938;4.348;2023-02-13T02:56:03;103745.22;;;9.69;68.92
17362;BME280;8798;51.938;4.348;2023-02-13T02:58:35;103734.56;;;9.68;69.14
17362;BME280;8798;51.938;4.348;2023-02-13T03:01:26;103749.69;;;9.69;68.92
17362;BME280;8798;51.938;4.348;2023-02-13T03:04:18;103747.00;;;9.69;69.14
17362;BME280;8798;51.938;4.348;2023-02-13T03:07:06;103733.75;;;9.66;69.11
17362;BME280;8798;51.938;4.348;2023-02-13T03:09:38;103729.34;;;9.65;69.37
17362;BME280;8798;51.938;4.348;2023-02-13T03:12:29;103726.72;;;9.63;69.13
17362;BME280;8798;51.938;4.348;2023-02-13T03:15:17;103724.03;;;9.63;69.10
17362;BME280;8798;51.938;4.348;2023-02-13T03:17:46;103728.47;;;9.64;69.37
17362;BME280;8798;51.938;4.348;2023-02-13T03:20:51;103726.66;;;9.65;69.09
17362;BME280;8798;51.938;4.348;2023-02-13T03:23:45;103723.16;;;9.63;69.16
17362;BME280;8798;51.938;4.348;2023-02-13T03:26:30;103727.56;;;9.64;69.13
17362;BME280;8798;51.938;4.348;2023-02-13T03:29:20;103732.94;;;9.64;69.26
17362;BME280;8798;51.938;4.348;2023-02-13T03:32:22;103734.72;;;9.65;69.12
17362;BME280;8798;51.938;4.348;2023-02-13T03:35:02;103728.53;;;9.63;69.28
17362;BME280;8798;51.938;4.348;2023-02-13T03:37:53;103713.44;;;9.60;69.17
17362;BME280;8798;51.938;4.348;2023-02-13T03:40:28;103706.31;;;9.59;69.29
17362;BME280;8798;51.938;4.348;2023-02-13T03:43:03;103706.41;;;9.58;69.37
17362;BME280;8798;51.938;4.348;2023-02-13T03:45:37;103698.53;;;9.55;69.29
17362;BME280;8798;51.938;4.348;2023-02-13T03:48:29;103693.16;;;9.55;69.25
17362;BME280;8798;51.938;4.348;2023-02-13T03:51:21;103692.25;;;9.54;69.17
17362;BME280;8798;51.938;4.348;2023-02-13T03:53:55;103697.63;;;9.54;69.13
17362;BME280;8798;51.938;4.348;2023-02-13T03:56:26;103701.13;;;9.56;69.46
17362;BME280;8798;51.938;4.348;2023-02-13T03:59:19;103695.91;;;9.53;69.08
17362;BME280;8798;51.938;4.348;2023-02-13T04:01:55;103689.69;;;9.53;69.54
17362;BME280;8798;51.938;4.348;2023-02-13T04:04:32;103679.88;;;9.52;69.44
17362;BME280;8798;51.938;4.348;2023-02-13T04:07:04;103687.16;;;9.50;69.57
17362;BME280;8798;51.938;4.348;2023-02-13T04:09:38;103681.84;;;9.48;69.32
17362;BME280;8798;51.938;4.348;2023-02-13T04:12:13;103668.50;;;9.46;69.18
17362;BME280;8798;51.938;4.348;2023-02-13T04:14:48;103676.47;;;9.48;69.40
17362;BME280;8798;51.938;4.348;2023-02-13T04:17:21;103680.13;;;9.47;69.62
17362;BME280;8798;51.938;4.348;2023-02-13T04:19:50;103675.63;;;9.47;69.65
17362;BME280;8798;51.938;4.348;2023-02-13T04:22:19;103687.16;;;9.50;69.73
17362;BME280;8798;51.938;4.348;2023-02-13T04:24:49;103698.66;;;9.52;69.57
17362;BME280;8798;51.938;4.348;2023-02-13T04:27:17;103706.63;;;9.53;69.64
17362;BME280;8798;51.938;4.348;2023-02-13T04:29:45;103700.41;;;9.53;69.59
17362;BME280;8798;51.938;4.348;2023-02-13T04:32:13;103700.41;;;9.53;69.63
17362;BME280;8798;51.938;4.348;2023-02-13T04:34:43;103702.13;;;9.54;69.89
17362;BME280;8798;51.938;4.348;2023-02-13T04:37:12;103710.13;;;9.55;69.85
17362;BME280;8798;51.938;4.348;2023-02-13T04:39:40;103723.44;;;9.57;69.77
17362;BME280;8798;51.938;4.348;2023-02-13T04:42:09;103726.94;;;9.59;69.77
17362;BME280;8798;51.938;4.348;2023-02-13T04:44:37;103726.06;;;9.58;69.62
17362;BME280;8798;51.938;4.348;2023-02-13T04:47:05;103724.34;;;9.57;69.64
17362;BME280;8798;51.938;4.348;2023-02-13T04:49:34;103718.09;;;9.57;69.86
17362;BME280;8798;51.938;4.348;2023-02-13T04:52:02;103721.72;;;9.56;69.75
17362;BME280;8798;51.938;4.348;2023-02-13T04:54:30;103727.94;;;9.56;69.76
17362;BME280;8798;51.938;4.348;2023-02-13T04:56:58;103715.50;;;9.55;69.83
17362;BME280;8798;51.938;4.348;2023-02-13T04:59:28;103722.59;;;9.56;69.55
17362;BME280;8798;51.938;4.348;2023-02-13T05:01:56;103713.59;;;9.57;69.79
17362;BME280;8798;51.938;4.348;2023-02-13T05:04:25;103719.03;;;9.56;69.94
17362;BME280;8798;51.938;4.348;2023-02-13T05:06:54;103718.19;;;9.55;69.75
17362;BME280;8798;51.938;4.348;2023-02-13T05:09:22;103713.72;;;9.54;69.98
17362;BME280;8798;51.938;4.348;2023-02-13T05:11:51;103711.06;;;9.54;69.85
17362;BME280;8798;51.938;4.348;2023-02-13T05:14:19;103722.59;;;9.56;70.01
17362;BME280;8798;51.938;4.348;2023-02-13T05:16:49;103726.13;;;9.57;69.75
17362;BME280;8798;51.938;4.348;2023-02-13T05:19:17;103720.75;;;9.57;69.97
17362;BME280;8798;51.938;4.348;2023-02-13T05:21:45;103718.09;;;9.57;69.88
17362;BME280;8798;51.938;4.348;2023-02-13T05:24:30;103725.38;;;9.55;69.91
17362;BME280;8798;51.938;4.348;2023-02-13T05:26:58;103720.84;;;9.55;70.02
17362;BME280;8798;51.938;4.348;2023-02-13T05:29:26;103720.00;;;9.55;69.96
17362;BME280;8798;51.938;4.348;2023-02-13T05:31:57;103724.41;;;9.56;70.10
17362;BME280;8798;51.938;4.348;2023-02-13T05:34:26;103730.63;;;9.56;69.87
17362;BME280;8798;51.938;4.348;2023-02-13T05:36:54;103721.66;;;9.57;70.09
17362;BME280;8798;51.938;4.348;2023-02-13T05:39:22;103739.44;;;9.60;70.02
17362;BME280;8798;51.938;4.348;2023-02-13T05:41:50;103740.28;;;9.60;69.93
17362;BME280;8798;51.938;4.348;2023-02-13T05:44:18;103740.28;;;9.60;70.09
17362;BME280;8798;51.938;4.348;2023-02-13T05:46:46;103746.53;;;9.61;70.04
17362;BME280;8798;51.938;4.348;2023-02-13T05:49:16;103748.28;;;9.62;70.08
17362;BME280;8798;51.938;4.348;2023-02-13T05:51:44;103740.28;;;9.60;70.05
17362;BME280;8798;51.938;4.348;2023-02-13T05:54:13;103743.84;;;9.61;70.10
17362;BME280;8798;51.938;4.348;2023-02-13T05:56:41;103745.59;;;9.62;70.00
17362;BME280;8798;51.938;4.348;2023-02-13T05:59:09;103746.47;;;9.62;70.10
17362;BME280;8798;51.938;4.348;2023-02-13T06:01:37;103750.00;;;9.63;70.08
17362;BME280;8798;51.938;4.348;2023-02-13T06:04:04;103740.22;;;9.62;70.22
17362;BME280;8798;51.938;4.348;2023-02-13T06:06:34;103749.16;;;9.62;70.10
17362;BME280;8798;51.938;4.348;2023-02-13T06:09:02;103742.91;;;9.62;70.24
17362;BME280;8798;51.938;4.348;2023-02-13T06:11:30;103735.78;;;9.61;70.33
17362;BME280;8798;51.938;4.348;2023-02-13T06:13:59;103734.88;;;9.62;70.24
17362;BME280;8798;51.938;4.348;2023-02-13T06:16:27;103740.22;;;9.62;70.19
17362;BME280;8798;51.938;4.348;2023-02-13T06:18:57;103745.59;;;9.62;70.30
17362;BME280;8798;51.938;4.348;2023-02-13T06:21:25;103741.16;;;9.61;70.24
17362;BME280;8798;51.938;4.348;2023-02-13T06:23:54;103734.94;;;9.60;70.10
17362;BME280;8798;51.938;4.348;2023-02-13T06:26:22;103738.53;;;9.59;70.18
17362;BME280;8798;51.938;4.348;2023-02-13T06:28:50;103728.75;;;9.58;70.29
17362;BME280;8798;51.938;4.348;2023-02-13T06:31:18;103724.25;;;9.59;70.24
17362;BME280;8798;51.938;4.348;2023-02-13T06:33:47;103716.34;;;9.56;70.50
17362;BME280;8798;51.938;4.348;2023-02-13T06:36:15;103704.81;;;9.54;70.45
17362;BME280;8798;51.938;4.348;2023-02-13T06:38:43;103718.25;;;9.54;70.40
17362;BME280;8798;51.938;4.348;2023-02-13T06:41:12;103714.63;;;9.55;70.28
17362;BME280;8798;51.938;4.348;2023-02-13T06:43:40;103720.84;;;9.55;70.37
17362;BME280;8798;51.938;4.348;2023-02-13T06:46:08;103722.69;;;9.55;70.33
17362;BME280;8798;51.938;4.348;2023-02-13T06:48:36;103721.72;;;9.56;70.53
17362;BME280;8798;51.938;4.348;2023-02-13T06:51:04;103721.66;;;9.57;69.86
17362;BME280;8798;51.938;4.348;2023-02-13T06:53:32;103733.25;;;9.58;70.55
17362;BME280;8798;51.938;4.348;2023-02-13T06:56:03;103733.16;;;9.59;70.72
17362;BME280;8798;51.938;4.348;2023-02-13T06:58:33;103735.78;;;9.61;70.33
17362;BME280;8798;51.938;4.348;2023-02-13T07:01:02;103748.28;;;9.62;70.41
17362;BME280;8798;51.938;4.348;2023-02-13T07:03:30;103753.66;;;9.62;70.38
17362;BME280;8798;51.938;4.348;2023-02-13T07:05:58;103750.88;;;9.63;70.52
17362;BME280;8798;51.938;4.348;2023-02-13T07:08:26;103756.19;;;9.65;70.59
17362;BME280;8798;51.938;4.348;2023-02-13T07:10:54;103765.97;;;9.66;70.59
17362;BME280;8798;51.938;4.348;2023-02-13T07:13:23;103758.88;;;9.65;70.58
17362;BME280;8798;51.938;4.348;2023-02-13T07:15:52;103763.28;;;9.66;70.87
17362;BME280;8798;51.938;4.348;2023-02-13T07:18:20;103763.28;;;9.66;70.86
17362;BME280;8798;51.938;4.348;2023-02-13T07:20:48;103766.81;;;9.66;70.69
17362;BME280;8798;51.938;4.348;2023-02-13T07:23:16;103769.44;;;9.68;70.71
17362;BME280;8798;51.938;4.348;2023-02-13T07:25:44;103779.16;;;9.71;70.74
17362;BME280;8798;51.938;4.348;2023-02-13T07:28:11;103785.41;;;9.71;70.97
17362;BME280;8798;51.938;4.348;2023-02-13T07:30:40;103788.88;;;9.73;70.82
17362;BME280;8798;51.938;4.348;2023-02-13T07:33:09;103790.59;;;9.74;70.66
17362;BME280;8798;51.938;4.348;2023-02-13T07:35:39;103810.16;;;9.78;70.80
17362;BME280;8798;51.938;4.348;2023-02-13T07:38:13;103811.97;;;9.77;70.99
17362;BME280;8798;51.938;4.348;2023-02-13T07:40:41;103807.41;;;9.79;70.87
17362;BME280;8798;51.938;4.348;2023-02-13T07:43:09;103815.44;;;9.79;70.98
17362;BME280;8798;51.938;4.348;2023-02-13T07:45:38;103812.75;;;9.79;71.02
17362;BME280;8798;51.938;4.348;2023-02-13T07:48:06;103814.50;;;9.80;71.18
17362;BME280;8798;51.938;4.348;2023-02-13T07:50:35;103813.69;;;9.78;71.24
17362;BME280;8798;51.938;4.348;2023-02-13T07:53:04;103803.91;;;9.77;71.04
17362;BME280;8798;51.938;4.348;2023-02-13T07:55:31;103795.84;;;9.77;71.11
17362;BME280;8798;51.938;4.348;2023-02-13T07:57:59;103799.47;;;9.76;71.38
17362;BME280;8798;51.938;4.348;2023-02-13T08:00:28;103788.72;;;9.76;71.06
17362;BME280;8798;51.938;4.348;2023-02-13T08:02:57;103798.53;;;9.77;71.32
17362;BME280;8798;51.938;4.348;2023-02-13T08:05:26;103800.38;;;9.77;71.10
17362;BME280;8798;51.938;4.348;2023-02-13T08:07:55;103791.50;;;9.75;71.14
17362;BME280;8798;51.938;4.348;2023-02-13T08:10:23;103784.38;;;9.74;71.21
17362;BME280;8798;51.938;4.348;2023-02-13T08:13:11;103766.53;;;9.73;71.16
17362;BME280;8798;51.938;4.348;2023-02-13T08:15:39;103771.97;;;9.71;71.09
17362;BME280;8798;51.938;4.348;2023-02-13T08:18:10;103756.09;;;9.66;70.95
17362;BME280;8798;51.938;4.348;2023-02-13T08:20:38;103744.63;;;9.63;71.31
17362;BME280;8798;51.938;4.348;2023-02-13T08:23:09;103712.72;;;9.57;71.14
17362;BME280;8798;51.938;4.348;2023-02-13T08:25:38;103685.31;;;9.50;71.08
17362;BME280;8798;51.938;4.348;2023-02-13T08:28:06;103676.63;;;9.45;71.26
17362;BME280;8798;51.938;4.348;2023-02-13T08:30:34;103660.75;;;9.40;71.19
17362;BME280;8798;51.938;4.348;2023-02-13T08:33:03;103637.63;;;9.38;71.22
17362;BME280;8798;51.938;4.348;2023-02-13T08:35:31;103650.19;;;9.37;71.35
17362;BME280;8798;51.938;4.348;2023-02-13T08:38:01;103643.00;;;9.38;71.46
17362;BME280;8798;51.938;4.348;2023-02-13T08:40:30;103641.25;;;9.37;71.43
17362;BME280;8798;51.938;4.348;2023-02-13T08:42:59;103643.06;;;9.36;71.38
17362;BME280;8798;51.938;4.348;2023-02-13T08:45:28;103643.16;;;9.35;71.51
17362;BME280;8798;51.938;4.348;2023-02-13T08:47:56;103646.69;;;9.35;71.63
17362;BME280;8798;51.938;4.348;2023-02-13T08:50:25;103651.09;;;9.36;71.71
17362;BME280;8798;51.938;4.348;2023-02-13T08:52:54;103659.09;;;9.38;71.23
17362;BME280;8798;51.938;4.348;2023-02-13T08:55:21;103677.72;;;9.41;71.77
17362;BME280;8798;51.938;4.348;2023-02-13T08:57:51;103679.44;;;9.42;71.77
17362;BME280;8798;51.938;4.348;2023-02-13T09:00:19;103683.94;;;9.41;71.56
17362;BME280;8798;51.938;4.348;2023-02-13T09:02:48;103679.53;;;9.40;71.70
17362;BME280;8798;51.938;4.348;2023-02-13T09:05:16;103673.31;;;9.40;71.68
17362;BME280;8798;51.938;4.348;2023-02-13T09:07:44;103670.69;;;9.38;71.71
17362;BME280;8798;51.938;4.348;2023-02-13T09:10:12;103666.19;;;9.39;71.75
17362;BME280;8798;51.938;4.348;2023-02-13T09:12:40;103676.91;;;9.39;72.03
17362;BME280;8798;51.938;4.348;2023-02-13T09:15:10;103686.72;;;9.40;72.01
17362;BME280;8798;51.938;4.348;2023-02-13T09:17:38;103690.25;;;9.40;72.03
17362;BME280;8798;51.938;4.348;2023-02-13T09:20:06;103696.44;;;9.42;71.95
17362;BME280;8798;51.938;4.348;2023-02-13T09:22:34;103696.34;;;9.44;71.96
17362;BME280;8798;51.938;4.348;2023-02-13T09:25:02;103704.47;;;9.42;71.93
17362;BME280;8798;51.938;4.348;2023-02-13T09:27:30;103697.28;;;9.43;72.11
17362;BME280;8798;51.938;4.348;2023-02-13T09:29:59;103690.31;;;9.39;72.40
17362;BME280;8798;51.938;4.348;2023-02-13T09:32:29;103684.09;;;9.38;71.99
17362;BME280;8798;51.938;4.348;2023-02-13T09:34:56;103684.97;;;9.39;71.89
17362;BME280;8798;51.938;4.348;2023-02-13T09:37:26;103686.72;;;9.40;72.24
17362;BME280;8798;51.938;4.348;2023-02-13T09:39:54;103697.34;;;9.41;72.17
17362;BME280;8798;51.938;4.348;2023-02-13T09:42:25;103707.22;;;9.41;72.87
17362;BME280;8798;51.938;4.348;2023-02-13T09:44:57;103716.06;;;9.43;72.06
17362;BME280;8798;51.938;4.348;2023-02-13T09:47:30;103724.03;;;9.44;72.22
17362;BME280;8798;51.938;4.348;2023-02-13T09:50:02;103733.78;;;9.47;72.21
17362;BME280;8798;51.938;4.348;2023-02-13T09:52:33;103744.41;;;9.48;72.09
17362;BME280;8798;51.938;4.348;2023-02-13T09:55:02;103742.53;;;9.51;72.41
17362;BME280;8798;51.938;4.348;2023-02-13T09:57:33;103747.91;;;9.51;72.44
17362;BME280;8798;51.938;4.348;2023-02-13T10:00:06;103769.22;;;9.54;72.26
17362;BME280;8798;51.938;4.348;2023-02-13T10:03:01;103767.41;;;9.54;72.36
17362;BME280;8798;51.938;4.348;2023-02-13T10:05:43;103770.03;;;9.56;73.17
17362;BME280;8798;51.938;4.348;2023-02-13T10:08:22;103775.25;;;9.59;72.62
17362;BME280;8798;51.938;4.348;2023-02-13T10:10:59;103790.41;;;9.60;72.39
17362;BME280;8798;51.938;4.348;2023-02-13T10:13:43;103785.91;;;9.60;72.71
17362;BME280;8798;51.938;4.348;2023-02-13T10:16:16;103793.91;;;9.62;72.10
17362;BME280;8798;51.938;4.348;2023-02-13T10:18:51;103795.63;;;9.63;72.73
17362;BME280;8798;51.938;4.348;2023-02-13T10:21:21;103807.16;;;9.65;72.43
17362;BME280;8798;51.938;4.348;2023-02-13T10:23:55;103822.16;;;9.69;72.31
17362;BME280;8798;51.938;4.348;2023-02-13T10:26:28;103828.34;;;9.71;72.60
17362;BME280;8798;51.938;4.348;2023-02-13T10:29:12;103834.50;;;9.73;72.75
17362;BME280;8798;51.938;4.348;2023-02-13T10:32:03;103845.19;;;9.75;72.59
17362;BME280;8798;51.938;4.348;2023-02-13T10:34:37;103850.41;;;9.78;72.68
17362;BME280;8798;51.938;4.348;2023-02-13T10:37:13;103865.50;;;9.80;72.60
17362;BME280;8798;51.938;4.348;2023-02-13T10:39:43;103873.41;;;9.83;72.63
17362;BME280;8798;51.938;4.348;2023-02-13T10:42:20;103872.47;;;9.84;72.77
17362;BME280;8798;51.938;4.348;2023-02-13T10:45:00;103878.72;;;9.85;72.69
17362;BME280;8798;51.938;4.348;2023-02-13T10:47:48;103881.31;;;9.86;72.92
17362;BME280;8798;51.938;4.348;2023-02-13T10:50:25;103881.31;;;9.86;72.74
17362;BME280;8798;51.938;4.348;2023-02-13T10:53:07;103878.63;;;9.86;72.81
17362;BME280;8798;51.938;4.348;2023-02-13T10:55:58;103875.00;;;9.87;72.58
17362;BME280;8798;51.938;4.348;2023-02-13T10:58:37;103877.69;;;9.87;72.77
17362;BME280;8798;51.938;4.348;2023-02-13T11:01:08;103881.19;;;9.89;72.88
17362;BME280;8798;51.938;4.348;2023-02-13T11:03:40;103889.16;;;9.91;72.74
17362;BME280;8798;51.938;4.348;2023-02-13T11:06:14;103905.16;;;9.94;72.81
17362;BME280;8798;51.938;4.348;2023-02-13T11:08:45;103904.13;;;9.97;72.87
17362;BME280;8798;51.938;4.348;2023-02-13T11:11:31;103919.13;;;10.01;72.74
17362;BME280;8798;51.938;4.348;2023-02-13T11:14:11;103921.75;;;10.02;73.05
17362;BME280;8798;51.938;4.348;2023-02-13T11:16:45;103945.72;;;10.07;73.05
17362;BME280;8798;51.938;4.348;2023-02-13T11:19:20;103955.38;;;10.11;72.95
17362;BME280;8798;51.938;4.348;2023-02-13T11:21:56;103968.69;;;10.14;73.03
17362;BME280;8798;51.938;4.348;2023-02-13T11:24:26;103962.34;;;10.15;73.06
17362;BME280;8798;51.938;4.348;2023-02-13T11:27:00;103965.84;;;10.17;72.80
17362;BME280;8798;51.938;4.348;2023-02-13T11:29:30;103973.81;;;10.19;72.95
17362;BME280;8798;51.938;4.348;2023-02-13T11:32:16;103983.56;;;10.21;72.95
17362;BME280;8798;51.938;4.348;2023-02-13T11:34:46;103995.91;;;10.25;73.11
17362;BME280;8798;51.938;4.348;2023-02-13T11:37:23;103999.38;;;10.29;72.96
17362;BME280;8798;51.938;4.348;2023-02-13T11:39:53;104006.41;;;10.31;73.15
17362;BME280;8798;51.938;4.348;2023-02-13T11:42:27;104018.75;;;10.36;73.08
17362;BME280;8798;51.938;4.348;2023-02-13T11:44:59;104032.81;;;10.41;73.19
17362;BME280;8798;51.938;4.348;2023-02-13T11:47:36;104036.31;;;10.43;73.01
17362;BME280;8798;51.938;4.348;2023-02-13T11:50:17;104046.91;;;10.46;73.12
17362;BME280;8798;51.938;4.348;2023-02-13T11:52:54;104049.56;;;10.47;73.09
17362;BME280;8798;51.938;4.348;2023-02-13T11:55:27;104057.41;;;10.52;72.82
17362;BME280;8798;51.938;4.348;2023-02-13T11:57:58;104068.00;;;10.55;72.90
17362;BME280;8798;51.938;4.348;2023-02-13T12:00:32;104084.78;;;10.60;73.02
17362;BME280;8798;51.938;4.348;2023-02-13T12:03:24;104092.75;;;10.63;72.85
17362;BME280;8798;51.938;4.348;2023-02-13T12:06:03;104089.09;;;10.64;72.63
17362;BME280;8798;51.938;4.348;2023-02-13T12:08:33;104096.13;;;10.67;72.73
17362;BME280;8798;51.938;4.348;2023-02-13T12:11:13;104095.94;;;10.71;72.98
17362;BME280;8798;51.938;4.348;2023-02-13T12:13:47;104119.03;;;10.75;72.74
17362;BME280;8798;51.938;4.348;2023-02-13T12:16:24;104115.34;;;10.78;72.65
17362;BME280;8798;51.938;4.348;2023-02-13T12:18:59;104133.94;;;10.83;72.91
17362;BME280;8798;51.938;4.348;2023-02-13T12:21:39;104147.16;;;10.87;73.08
17362;BME280;8798;51.938;4.348;2023-02-13T12:24:20;104155.03;;;10.92;73.08
17362;BME280;8798;51.938;4.348;2023-02-13T12:26:59;104175.47;;;10.96;72.65
17362;BME280;8798;51.938;4.348;2023-02-13T12:29:53;104176.28;;;10.98;72.96
17362;BME280;8798;51.938;4.348;2023-02-13T12:32:34;104180.53;;;11.02;72.81
17362;BME280;8798;51.938;4.348;2023-02-13T12:35:40;104187.47;;;11.08;73.17
17362;BME280;8798;51.938;4.348;2023-02-13T12:38:17;104196.22;;;11.13;73.12
17362;BME280;8798;51.938;4.348;2023-02-13T12:41:12;104214.78;;;11.17;73.25
17362;BME280;8798;51.938;4.348;2023-02-13T12:44:04;104218.28;;;11.19;72.72
17362;BME280;8798;51.938;4.348;2023-02-13T12:46:46;104219.09;;;11.22;72.86
17362;BME280;8798;51.938;4.348;2023-02-13T12:49:46;104225.13;;;11.27;73.16
17362;BME280;8798;51.938;4.348;2023-02-13T12:52:37;104234.72;;;11.32;73.15
17362;BME280;8798;51.938;4.348;2023-02-13T12:55:29;104233.72;;;11.35;72.96
17362;BME280;8798;51.938;4.348;2023-02-13T12:58:13;104236.28;;;11.38;72.64
17362;BME280;8798;51.938;4.348;2023-02-13T13:00:52;104243.34;;;11.40;72.57
17362;BME280;8798;51.938;4.348;2023-02-13T13:03:35;104253.00;;;11.45;72.74
17362;BME280;8798;51.938;4.348;2023-02-13T13:06:25;104265.38;;;11.49;72.69
17362;BME280;8798;51.938;4.348;2023-02-13T13:09:29;104257.16;;;11.52;72.61
17362;BME280;8798;51.938;4.348;2023-02-13T13:15:02;104264.09;;;11.57;72.93
17362;BME280;8798;51.938;4.348;2023-02-13T13:17:44;104274.69;;;11.60;72.71
17362;BME280;8798;51.938;4.348;2023-02-13T13:20:41;104265.66;;;11.61;71.99
17362;BME280;8798;51.938;4.348;2023-02-13T13:23:20;104263.72;;;11.65;72.46
17362;BME280;8798;51.938;4.348;2023-02-13T13:26:03;104267.22;;;11.67;72.12
17362;BME280;8798;51.938;4.348;2023-02-13T13:28:35;104267.91;;;11.71;72.19
17362;BME280;8798;51.938;4.348;2023-02-13T13:31:06;104285.69;;;11.75;72.29
17362;BME280;8798;51.938;4.348;2023-02-13T13:33:38;104286.41;;;11.78;72.57
17362;BME280;8798;51.938;4.348;2023-02-13T13:36:12;104272.06;;;11.78;72.18
17362;BME280;8798;51.938;4.348;2023-02-13T13:38:47;104272.88;;;11.80;72.03
17362;BME280;8798;51.938;4.348;2023-02-13T13:41:24;104270.09;;;11.81;71.57
17362;BME280;8798;51.938;4.348;2023-02-13T13:44:04;104269.06;;;11.84;71.76
17362;BME280;8798;51.938;4.348;2023-02-13T13:46:44;104271.66;;;11.87;72.27